createdAt,value
2018-04-19T00:00:14.779Z,89.60
2018-04-19T00:02:42.297Z,89.30
2018-04-19T00:05:09.806Z,90.20
2018-04-19T00:07:37.442Z,90.30
2018-04-19T00:10:05.757Z,90.50
2018-04-19T00:12:35.220Z,90.50
2018-04-19T00:15:02.740Z,90.30
2018-04-19T00:17:30.300Z,90.60
2018-04-19T00:19:57.800Z,90.60
2018-04-19T00:22:44.015Z,90.90
2018-04-19T00:27:52.083Z,91.20
2018-04-19T00:30:19.657Z,91.20
2018-04-19T00:32:47.216Z,91.30
2018-04-19T00:35:15.664Z,91.30
2018-04-19T00:37:44.104Z,91.40
2018-04-19T00:40:11.593Z,91.50
2018-04-19T00:42:40.149Z,91.80
2018-04-19T00:45:07.658Z,92.20
2018-04-19T00:47:35.940Z,92.00
2018-04-19T00:50:03.565Z,92.00
2018-04-19T00:52:43.876Z,92.80
2018-04-19T00:55:11.488Z,92.40
2018-04-19T00:57:40.470Z,92.50
2018-04-19T01:00:08.905Z,92.30
2018-04-19T01:02:36.497Z,92.50
2018-04-19T01:05:04.841Z,92.80
2018-04-19T01:07:32.394Z,92.80
2018-04-19T01:09:59.906Z,92.70
2018-04-19T01:12:27.408Z,93.00
2018-04-19T01:14:54.959Z,93.00
2018-04-19T01:17:22.511Z,92.80
2018-04-19T01:19:50.022Z,93.10
2018-04-19T01:22:18.523Z,93.70
2018-04-19T01:24:46.061Z,93.70
2018-04-19T01:27:14.524Z,93.80
2018-04-19T01:29:43.978Z,94.00
2018-04-19T01:32:11.543Z,93.10
2018-04-19T01:34:39.147Z,93.00
2018-04-19T01:37:06.659Z,92.40
2018-04-19T01:39:35.095Z,92.60
2018-04-19T01:42:02.690Z,93.20
2018-04-19T01:44:31.256Z,93.00
2018-04-19T01:47:00.714Z,92.50
2018-04-19T01:49:28.257Z,91.80
2018-04-19T01:51:55.782Z,91.80
2018-04-19T01:54:24.298Z,91.40
2018-04-19T01:56:51.855Z,91.30
2018-04-19T01:59:19.419Z,92.20
2018-04-19T02:01:46.958Z,92.00
2018-04-19T02:04:14.491Z,92.20
2018-04-19T02:06:41.990Z,92.40
2018-04-19T02:09:09.502Z,92.20
2018-04-19T02:11:37.992Z,92.70
2018-04-19T02:14:06.443Z,92.60
2018-04-19T02:16:33.987Z,92.00
2018-04-19T02:19:02.481Z,92.20
2018-04-19T02:21:30.083Z,92.50
2018-04-19T02:23:58.011Z,92.90
2018-04-19T02:26:25.610Z,92.90
2018-04-19T02:28:53.180Z,93.20
2018-04-19T02:31:20.788Z,93.10
2018-04-19T02:33:50.031Z,93.00
2018-04-19T02:36:18.529Z,93.00
2018-04-19T02:38:46.061Z,93.60
2018-04-19T02:41:13.595Z,93.30
2018-04-19T02:43:41.868Z,93.00
2018-04-19T02:46:09.429Z,93.00
2018-04-19T02:48:37.002Z,92.50
2018-04-19T02:51:06.216Z,92.10
2018-04-19T02:53:34.514Z,92.20
2018-04-19T02:56:02.968Z,92.20
2018-04-19T02:58:30.568Z,91.50
2018-04-19T03:01:00.079Z,91.60
2018-04-19T03:03:28.473Z,92.90
2018-04-19T03:05:55.991Z,92.80
2018-04-19T03:08:23.515Z,92.90
2018-04-19T03:10:52.047Z,93.60
2018-04-19T03:13:21.377Z,93.30
2018-04-19T03:15:49.841Z,93.30
2018-04-19T03:18:18.250Z,93.00
2018-04-19T03:20:45.789Z,93.00
2018-04-19T03:23:13.356Z,92.50
2018-04-19T03:25:40.912Z,92.90
2018-04-19T03:28:09.239Z,94.00
2018-04-19T03:30:37.756Z,93.90
2018-04-19T03:33:05.341Z,93.70
2018-04-19T03:35:35.916Z,93.70
2018-04-19T03:38:03.470Z,93.70
2018-04-19T03:43:28.756Z,93.20
2018-04-19T03:45:56.281Z,92.90
2018-04-19T03:48:23.843Z,93.60
2018-04-19T03:50:52.343Z,94.60
2018-04-19T03:53:19.917Z,95.30
2018-04-19T03:55:48.335Z,95.30
2018-04-19T03:58:17.335Z,95.60
2018-04-19T04:00:44.838Z,95.70
2018-04-19T04:03:12.358Z,96.00
2018-04-19T04:05:40.682Z,96.20
2018-04-19T04:08:08.210Z,96.20
2018-04-19T04:13:36.212Z,95.00
2018-04-19T04:16:06.727Z,94.80
2018-04-19T04:18:58.668Z,94.70
2018-04-19T04:21:26.193Z,94.60
2018-04-19T04:23:53.713Z,96.10
2018-04-19T04:26:22.188Z,94.60
2018-04-19T04:28:49.767Z,94.30
2018-04-19T04:31:19.272Z,94.30
2018-04-19T04:33:46.875Z,94.10
2018-04-19T04:36:14.574Z,94.30
2018-04-19T04:38:42.166Z,94.00
2018-04-19T04:41:09.682Z,93.40
2018-04-19T04:43:37.276Z,92.70
2018-04-19T04:46:04.827Z,92.70
2018-04-19T04:48:32.334Z,91.00
2018-04-19T04:51:00.077Z,90.40
2018-04-19T04:53:27.596Z,90.00
2018-04-19T04:55:55.125Z,89.80
2018-04-19T04:58:22.612Z,90.00
2018-04-19T05:00:51.109Z,90.50
2018-04-19T05:03:20.333Z,91.80
2018-04-19T05:05:47.951Z,91.80
2018-04-19T05:08:18.420Z,92.00
2018-04-19T05:10:46.003Z,92.30
2018-04-19T05:13:14.941Z,92.40
2018-04-19T05:15:42.540Z,92.40
2018-04-19T05:18:10.132Z,92.40
2018-04-19T05:20:38.452Z,92.40
2018-04-19T05:23:06.012Z,92.40
2018-04-19T05:25:34.591Z,92.10
2018-04-19T05:28:05.035Z,91.50
2018-04-19T05:30:32.639Z,91.50
2018-04-19T05:33:01.020Z,91.00
2018-04-19T05:35:28.641Z,91.40
2018-04-19T05:37:56.182Z,89.50
2018-04-19T05:40:23.724Z,89.80
2018-04-19T05:42:52.220Z,89.70
2018-04-19T05:45:20.605Z,89.30
2018-04-19T05:47:48.134Z,89.30
2018-04-19T05:50:15.771Z,88.90
2018-04-19T05:52:43.307Z,88.50
2018-04-19T05:55:10.846Z,88.90
2018-04-19T05:57:38.405Z,87.70
2018-04-19T06:00:05.911Z,86.80
2018-04-19T06:02:33.472Z,86.90
2018-04-19T06:05:01.002Z,86.90
2018-04-19T06:07:28.615Z,85.40
2018-04-19T06:09:56.278Z,84.60
2018-04-19T06:12:23.812Z,83.90
2018-04-19T06:14:52.098Z,80.50
2018-04-19T06:17:20.417Z,80.00
2018-04-19T06:19:47.927Z,80.00
2018-04-19T06:22:16.520Z,79.20
2018-04-19T06:24:44.080Z,78.60
2018-04-19T06:27:11.595Z,77.80
2018-04-19T06:29:39.299Z,78.90
2018-04-19T06:32:06.811Z,81.80
2018-04-19T06:34:35.867Z,78.30
2018-04-19T06:37:03.391Z,75.90
2018-04-19T06:39:32.871Z,78.40
2018-04-19T06:42:00.607Z,77.20
2018-04-19T06:44:28.840Z,78.40
2018-04-19T06:46:56.432Z,78.60
2018-04-19T06:49:24.937Z,77.60
2018-04-19T06:51:53.239Z,76.90
2018-04-19T06:54:21.539Z,75.40
2018-04-19T06:56:49.705Z,75.30
2018-04-19T06:59:18.979Z,74.50
2018-04-19T07:01:46.517Z,74.50
2018-04-19T07:04:16.001Z,75.50
2018-04-19T07:06:43.604Z,75.50
2018-04-19T07:09:12.162Z,75.50
2018-04-19T07:11:39.780Z,75.50
2018-04-19T07:14:08.074Z,79.80
2018-04-19T07:16:36.374Z,78.10
2018-04-19T07:19:03.911Z,78.10
2018-04-19T07:21:31.516Z,78.20
2018-04-19T07:24:00.146Z,77.60
2018-04-19T07:26:27.655Z,78.10
2018-04-19T07:28:55.294Z,82.40
2018-04-19T07:31:22.887Z,83.70
2018-04-19T07:33:50.485Z,83.20
2018-04-19T07:36:18.171Z,81.10
2018-04-19T07:38:46.674Z,79.80
2018-04-19T07:41:14.193Z,79.10
2018-04-19T07:43:42.783Z,81.30
2018-04-19T07:46:29.080Z,78.00
2018-04-19T07:49:05.036Z,81.10
2018-04-19T07:54:35.538Z,76.60
2018-04-19T07:57:03.116Z,78.00
2018-04-19T07:59:31.575Z,77.10
2018-04-19T08:02:00.001Z,76.50
2018-04-19T08:04:27.549Z,76.40
2018-04-19T08:06:55.176Z,79.00
2018-04-19T08:09:22.904Z,77.50
2018-04-19T08:11:50.479Z,75.70
2018-04-19T08:14:18.976Z,77.00
2018-04-19T08:16:47.435Z,75.50
2018-04-19T08:19:15.009Z,74.80
2018-04-19T08:21:42.634Z,72.00
2018-04-19T08:24:10.975Z,76.90
2018-04-19T08:26:39.475Z,76.70
2018-04-19T08:29:07.114Z,75.40
2018-04-19T08:31:34.852Z,75.40
2018-04-19T08:34:04.361Z,71.00
2018-04-19T08:36:32.780Z,73.00
2018-04-19T08:39:00.325Z,73.80
2018-04-19T08:41:28.771Z,76.50
2018-04-19T08:44:15.913Z,73.60
2018-04-19T08:46:45.379Z,73.70
2018-04-19T08:52:29.536Z,74.50
2018-04-19T08:54:57.868Z,74.70
2018-04-19T08:57:27.348Z,74.60
2018-04-19T08:59:54.867Z,75.10
2018-04-19T09:02:24.379Z,75.50
2018-04-19T09:08:27.123Z,75.00
2018-04-19T09:10:54.742Z,74.50
2018-04-19T09:16:20.737Z,75.10
2018-04-19T09:18:50.073Z,73.10
2018-04-19T09:21:20.626Z,72.80
2018-04-19T09:24:09.287Z,77.20
2018-04-19T09:26:36.818Z,76.90
2018-04-19T09:29:05.160Z,74.50
2018-04-19T09:31:32.676Z,74.50
2018-04-19T09:34:00.976Z,73.90
2018-04-19T09:36:28.559Z,74.10
2018-04-19T09:38:57.080Z,72.60
2018-04-19T09:41:24.669Z,74.10
2018-04-19T09:43:53.002Z,73.10
2018-04-19T09:46:20.541Z,73.00
2018-04-19T09:48:48.076Z,71.10
2018-04-19T09:51:17.251Z,72.40
2018-04-19T09:53:44.782Z,72.00
2018-04-19T09:56:12.289Z,72.20
2018-04-19T09:58:40.853Z,69.50
2018-04-19T10:01:10.305Z,69.40
2018-04-19T10:03:44.170Z,70.20
2018-04-19T10:06:11.700Z,70.20
2018-04-19T10:08:40.150Z,71.40
2018-04-19T10:11:08.546Z,70.00
2018-04-19T10:13:37.771Z,70.10
2018-04-19T10:16:05.398Z,69.70
2018-04-19T10:18:32.916Z,70.60
2018-04-19T10:21:00.427Z,69.20
2018-04-19T10:23:28.839Z,70.20
2018-04-19T10:25:56.443Z,70.30
2018-04-19T10:28:24.048Z,68.60
2018-04-19T10:30:51.612Z,73.40
2018-04-19T10:33:19.200Z,71.60
2018-04-19T10:35:46.762Z,67.30
2018-04-19T10:38:15.030Z,70.50
2018-04-19T10:40:44.262Z,70.50
2018-04-19T10:43:12.517Z,69.80
2018-04-19T10:45:40.796Z,64.60
2018-04-19T10:48:08.376Z,64.60
2018-04-19T10:50:35.980Z,62.10
2018-04-19T10:53:03.492Z,67.50
2018-04-19T10:55:33.710Z,63.20
2018-04-19T10:58:01.989Z,67.60
2018-04-19T11:00:30.330Z,68.60
2018-04-19T11:02:57.891Z,68.80
2018-04-19T11:05:25.518Z,62.10
2018-04-19T11:07:53.113Z,65.40
2018-04-19T11:10:21.393Z,62.90
2018-04-19T11:12:49.883Z,58.80
2018-04-19T11:15:36.029Z,58.40
2018-04-19T11:18:04.373Z,57.60
2018-04-19T11:20:31.938Z,57.50
2018-04-19T11:25:59.428Z,59.80
2018-04-19T11:28:26.952Z,52.00
2018-04-19T11:30:54.503Z,54.30
2018-04-19T11:33:22.112Z,51.20
2018-04-19T11:35:49.627Z,52.70
2018-04-19T11:38:17.146Z,56.60
2018-04-19T11:40:44.760Z,52.60
2018-04-19T11:43:13.230Z,53.40
2018-04-19T11:45:40.737Z,53.30
2018-04-19T11:48:08.247Z,53.10
2018-04-19T11:50:35.829Z,56.40
2018-04-19T11:53:03.397Z,48.50
2018-04-19T11:55:30.915Z,47.60
2018-04-19T11:57:58.415Z,50.40
2018-04-19T12:00:27.647Z,47.10
2018-04-19T12:02:55.878Z,47.00
2018-04-19T12:05:25.151Z,47.50
2018-04-19T12:07:54.651Z,47.20
2018-04-19T12:10:22.184Z,52.20
2018-04-19T12:12:50.657Z,45.50
2018-04-19T12:15:19.912Z,49.80
2018-04-19T12:17:47.545Z,50.00
2018-04-19T12:20:15.051Z,50.90
2018-04-19T12:22:43.514Z,47.00
2018-04-19T12:25:11.995Z,47.00
2018-04-19T12:27:40.545Z,45.60
2018-04-19T12:30:08.913Z,45.90
2018-04-19T12:32:36.484Z,45.60
2018-04-19T12:35:04.808Z,45.30
2018-04-19T12:37:34.380Z,45.50
2018-04-19T12:40:01.918Z,47.30
2018-04-19T12:42:29.477Z,47.40
2018-04-19T12:44:57.065Z,47.80
2018-04-19T12:47:25.344Z,46.80
2018-04-19T12:49:52.907Z,46.70
2018-04-19T12:52:20.454Z,43.80
2018-04-19T12:54:48.064Z,44.70
2018-04-19T12:57:17.584Z,45.00
2018-04-19T12:59:45.081Z,46.30
2018-04-19T13:02:13.536Z,44.10
2018-04-19T13:04:41.084Z,45.50
2018-04-19T13:07:08.658Z,44.20
2018-04-19T13:09:37.175Z,43.80
2018-04-19T13:12:04.763Z,45.80
2018-04-19T13:14:33.260Z,44.70
2018-04-19T13:17:00.753Z,44.50
2018-04-19T13:19:28.301Z,44.30
2018-04-19T13:21:56.617Z,42.50
2018-04-19T13:24:24.155Z,42.60
2018-04-19T13:26:51.705Z,44.10
2018-04-19T13:29:19.203Z,44.10
2018-04-19T13:31:46.728Z,43.20
2018-04-19T13:34:14.693Z,42.00
2018-04-19T13:36:42.202Z,42.40
2018-04-19T13:39:09.725Z,44.10
2018-04-19T13:41:37.389Z,43.80
2018-04-19T13:44:05.700Z,43.40
2018-04-19T13:46:34.155Z,43.30
2018-04-19T13:49:01.762Z,43.60
2018-04-19T13:51:48.055Z,45.00
2018-04-19T13:54:15.557Z,44.60
2018-04-19T13:56:43.133Z,42.30
2018-04-19T13:59:10.688Z,42.20
2018-04-19T14:01:39.004Z,45.90
2018-04-19T14:04:07.297Z,46.60
2018-04-19T14:06:34.869Z,45.80
2018-04-19T14:09:02.415Z,45.00
2018-04-19T14:11:32.616Z,41.80
2018-04-19T14:14:01.116Z,41.70
2018-04-19T14:16:29.466Z,42.70
2018-04-19T14:18:58.904Z,42.70
2018-04-19T14:21:28.058Z,43.00
2018-04-19T14:23:55.560Z,43.40
2018-04-19T14:26:25.043Z,45.90
2018-04-19T14:28:52.684Z,45.40
2018-04-19T14:31:22.231Z,49.70
2018-04-19T14:33:50.716Z,45.10
2018-04-19T14:36:19.234Z,46.10
2018-04-19T14:38:47.507Z,45.00
2018-04-19T14:41:17.039Z,44.90
2018-04-19T14:43:46.246Z,45.20
2018-04-19T14:46:14.755Z,45.20
2018-04-19T14:48:43.189Z,43.80
2018-04-19T14:51:10.752Z,41.40
2018-04-19T14:53:39.241Z,42.20
2018-04-19T14:56:07.726Z,40.90
2018-04-19T14:58:38.004Z,41.90
2018-04-19T15:01:05.618Z,40.50
2018-04-19T15:03:33.978Z,40.80
2018-04-19T15:06:01.482Z,40.80
2018-04-19T15:08:29.757Z,42.50
2018-04-19T15:10:58.850Z,40.90
2018-04-19T15:13:30.113Z,40.00
2018-04-19T15:15:58.431Z,42.20
2018-04-19T15:18:44.871Z,42.30
2018-04-19T15:21:13.147Z,39.10
2018-04-19T15:26:21.364Z,38.30
2018-04-19T15:28:49.687Z,39.00
2018-04-19T15:31:17.952Z,35.30
2018-04-19T15:33:46.237Z,38.30
2018-04-19T15:36:14.523Z,38.80
2018-04-19T15:38:42.801Z,37.70
2018-04-19T15:41:11.102Z,36.80
2018-04-19T15:43:38.680Z,36.90
2018-04-19T15:46:06.222Z,34.70
2018-04-19T15:48:35.696Z,35.70
2018-04-19T15:51:03.214Z,35.60
2018-04-19T15:53:31.813Z,35.20
2018-04-19T15:55:59.317Z,36.30
2018-04-19T16:01:25.357Z,33.30
2018-04-19T16:03:55.315Z,33.20
2018-04-19T16:06:22.854Z,38.60
2018-04-19T16:08:51.119Z,37.20
2018-04-19T16:11:18.704Z,36.50
2018-04-19T16:13:46.320Z,38.00
2018-04-19T16:16:14.812Z,37.20
2018-04-19T16:19:00.953Z,36.90
2018-04-19T16:21:28.518Z,39.10
2018-04-19T16:23:56.061Z,36.30
2018-04-19T16:26:23.532Z,37.60
2018-04-19T16:31:49.989Z,38.00
2018-04-19T16:34:18.628Z,38.00
2018-04-19T16:36:46.765Z,37.60
2018-04-19T16:39:15.231Z,34.90
2018-04-19T16:41:43.557Z,36.60
2018-04-19T16:44:12.049Z,36.60
2018-04-19T16:46:39.604Z,36.20
2018-04-19T16:49:07.203Z,36.30
2018-04-19T16:51:35.731Z,35.70
2018-04-19T16:54:03.278Z,35.10
2018-04-19T16:56:31.541Z,37.00
2018-04-19T16:59:00.118Z,37.00
2018-04-19T17:01:27.647Z,37.60
2018-04-19T17:03:56.123Z,37.30
2018-04-19T17:06:23.687Z,37.50
2018-04-19T17:08:51.301Z,37.60
2018-04-19T17:11:18.914Z,37.50
2018-04-19T17:13:46.406Z,37.60
2018-04-19T17:16:14.827Z,39.30
2018-04-19T17:18:45.031Z,40.20
2018-04-19T17:21:12.538Z,40.20
2018-04-19T17:23:40.089Z,39.50
2018-04-19T17:26:26.234Z,40.60
2018-04-19T17:31:35.556Z,41.10
2018-04-19T17:34:23.340Z,41.20
2018-04-19T17:36:50.855Z,42.20
2018-04-19T17:39:18.436Z,44.40
2018-04-19T17:41:46.003Z,47.20
2018-04-19T17:44:13.554Z,47.10
2018-04-19T17:46:41.128Z,46.80
2018-04-19T17:49:08.622Z,44.70
2018-04-19T17:51:37.088Z,44.90
2018-04-19T17:54:07.554Z,45.80
2018-04-19T17:56:35.838Z,46.40
2018-04-19T17:59:05.047Z,46.40
2018-04-19T18:01:33.611Z,46.20
2018-04-19T18:04:01.157Z,47.60
2018-04-19T18:06:29.376Z,48.40
2018-04-19T18:08:59.569Z,49.10
2018-04-19T18:11:27.142Z,49.10
2018-04-19T18:13:57.574Z,49.40
2018-04-19T18:16:25.164Z,50.50
2018-04-19T18:18:52.675Z,50.50
2018-04-19T18:21:21.160Z,50.80
2018-04-19T18:23:48.797Z,51.20
2018-04-19T18:26:16.293Z,51.10
2018-04-19T18:31:42.260Z,52.50
2018-04-19T18:34:11.096Z,51.50
2018-04-19T18:36:39.544Z,51.50
2018-04-19T18:39:07.821Z,56.70
2018-04-19T18:41:36.100Z,55.30
2018-04-19T18:44:04.388Z,53.00
2018-04-19T18:46:33.598Z,53.20
2018-04-19T18:49:01.859Z,54.40
2018-04-19T18:51:29.380Z,54.40
2018-04-19T18:53:56.996Z,53.70
2018-04-19T18:56:25.324Z,54.20
2018-04-19T18:58:53.717Z,54.90
2018-04-19T19:01:21.212Z,54.90
2018-04-19T19:03:49.657Z,56.10
2018-04-19T19:06:17.295Z,57.40
2018-04-19T19:08:44.825Z,56.90
2018-04-19T19:11:12.988Z,57.10
2018-04-19T19:13:41.412Z,58.10
2018-04-19T19:16:10.296Z,61.80
2018-04-19T19:18:49.742Z,60.00
2018-04-19T19:21:17.269Z,61.40
2018-04-19T19:23:45.814Z,63.00
2018-04-19T19:26:13.335Z,61.50
2018-04-19T19:31:39.728Z,61.10
2018-04-19T19:34:09.253Z,61.20
2018-04-19T19:36:36.823Z,63.00
2018-04-19T19:39:04.758Z,63.20
2018-04-19T19:41:32.984Z,63.20
2018-04-19T19:44:00.494Z,64.90
2018-04-19T19:46:28.966Z,65.30
2018-04-19T19:48:57.237Z,65.90
2018-04-19T19:51:43.379Z,65.90
2018-04-19T19:54:11.857Z,66.50
2018-04-19T19:56:41.370Z,67.80
2018-04-19T19:59:08.981Z,67.80
2018-04-19T20:04:18.749Z,67.70
2018-04-19T20:06:46.403Z,66.80
2018-04-19T20:09:14.954Z,66.30
2018-04-19T20:11:45.494Z,66.50
2018-04-19T20:14:14.037Z,66.50
2018-04-19T20:16:42.408Z,67.50
2018-04-19T20:19:09.985Z,67.30
2018-04-19T20:21:38.297Z,65.10
2018-04-19T20:24:05.843Z,65.10
2018-04-19T20:26:52.063Z,65.60
2018-04-19T20:29:19.579Z,65.50
2018-04-19T20:31:47.883Z,67.80
2018-04-19T20:34:15.400Z,67.80
2018-04-19T20:36:43.930Z,67.80
2018-04-19T20:39:11.468Z,67.70
2018-04-19T20:41:39.034Z,68.70
2018-04-19T20:44:08.251Z,68.20
2018-04-19T20:46:36.002Z,68.20
2018-04-19T20:49:03.599Z,67.60
2018-04-19T20:51:31.142Z,68.50
2018-04-19T20:54:00.462Z,69.30
2018-04-19T20:56:28.041Z,69.20
2018-04-19T20:58:56.535Z,69.30
2018-04-19T21:01:24.095Z,69.60
2018-04-19T21:04:11.556Z,69.50
2018-04-19T21:09:20.247Z,70.40
2018-04-19T21:11:49.181Z,70.40
2018-04-19T21:14:16.737Z,70.40
2018-04-19T21:16:44.332Z,70.90
2018-04-19T21:19:11.872Z,70.00
2018-04-19T21:21:43.992Z,69.80
2018-04-19T21:24:11.549Z,70.90
2018-04-19T21:26:39.237Z,71.70
2018-04-19T21:29:07.923Z,72.50
2018-04-19T21:31:35.565Z,72.30
2018-04-19T21:34:22.944Z,72.20
2018-04-19T21:36:51.086Z,72.10
2018-04-19T21:39:18.639Z,71.60
2018-04-19T21:41:46.259Z,72.50
2018-04-19T21:44:15.765Z,72.30
2018-04-19T21:46:44.224Z,72.20
2018-04-19T21:49:12.643Z,72.10
2018-04-19T21:51:41.200Z,72.50
2018-04-19T21:54:08.732Z,71.70
2018-04-19T21:56:37.034Z,71.30
2018-04-19T21:59:06.526Z,71.30
2018-04-19T22:01:34.190Z,71.40
2018-04-19T22:04:02.687Z,69.80
2018-04-19T22:06:30.280Z,69.40
2018-04-19T22:08:57.811Z,69.90
2018-04-19T22:11:25.339Z,70.20
2018-04-19T22:13:54.773Z,69.30
2018-04-19T22:16:23.976Z,71.30
2018-04-19T22:18:51.524Z,71.20
2018-04-19T22:21:19.140Z,71.80
2018-04-19T22:23:48.696Z,72.60
2018-04-19T22:26:16.256Z,73.50
2018-04-19T22:28:43.819Z,75.00
2018-04-19T22:31:15.315Z,74.60
2018-04-19T22:33:42.815Z,74.60
2018-04-19T22:36:10.370Z,74.30
2018-04-19T22:38:37.971Z,75.40
2018-04-19T22:41:05.496Z,75.60
2018-04-19T22:43:33.018Z,76.40
2018-04-19T22:46:01.308Z,76.00
2018-04-19T22:48:28.967Z,76.00
2018-04-19T22:50:56.527Z,76.20
2018-04-19T22:53:44.566Z,77.20
2018-04-19T22:56:12.175Z,77.20
2018-04-19T23:01:40.988Z,77.00
2018-04-19T23:04:08.548Z,77.90
2018-04-19T23:06:36.083Z,77.70
2018-04-19T23:09:05.687Z,77.40
2018-04-19T23:11:34.169Z,78.60
2018-04-19T23:14:02.275Z,78.00
2018-04-19T23:16:29.837Z,77.30
2018-04-19T23:18:57.341Z,77.10
2018-04-19T23:21:25.900Z,77.00
2018-04-19T23:23:55.216Z,77.80
2018-04-19T23:26:23.629Z,77.80
2018-04-19T23:28:51.940Z,77.50
2018-04-19T23:31:19.466Z,77.50
2018-04-19T23:33:47.765Z,77.30
2018-04-19T23:36:16.247Z,77.40
2018-04-19T23:38:43.791Z,77.50
2018-04-19T23:41:11.300Z,78.10
2018-04-19T23:43:38.986Z,78.10
2018-04-19T23:46:06.571Z,78.60
2018-04-19T23:48:34.050Z,79.50
2018-04-19T23:51:01.586Z,79.30
2018-04-19T23:53:30.008Z,80.30
2018-04-19T23:55:59.205Z,79.40
2018-04-19T23:58:28.425Z,79.20
